Time;durP1;ratioP1;P1;durP2;ratioP2;P2;SDS_P1;SDS_P2;PMS_P1;PMS_P2;Temp;Humidity;BMP_temperature;BMP_pressure;BME280_temperature;BME280_humidity;BME280_pressure;Samples;Min_cycle;Max_cycle;Signal;HPM_P1;HPM_P2
2023/11/27 00:00:53;;;;;;;0.10;0.10;;;22.10;47.30;;;;;;5033450;28;20303;-46
2023/11/27 00:03:24;;;;;;;0.00;0.00;;;22.10;47.40;;;;;;5033420;28;20227;-50
2023/11/27 00:05:57;;;;;;;0.00;0.00;;;22.20;47.40;;;;;;5032921;28;20204;-47
2023/11/27 00:08:27;;;;;;;0.00;0.00;;;22.20;47.50;;;;;;5033141;28;20196;-46
2023/11/27 00:10:58;;;;;;;0.00;0.00;;;22.20;47.50;;;;;;5033034;28;20224;-48
2023/11/27 00:13:29;;;;;;;0.08;0.08;;;22.20;47.50;;;;;;5015954;28;20193;-51
2023/11/27 00:15:59;;;;;;;0.00;0.00;;;22.30;47.40;;;;;;5013402;28;20193;-48
2023/11/27 00:18:31;;;;;;;0.00;0.00;;;22.30;47.50;;;;;;5013407;28;20197;-48
2023/11/27 00:21:03;;;;;;;0.00;0.00;;;22.30;47.40;;;;;;5013326;28;20216;-46
2023/11/27 00:23:34;;;;;;;0.00;0.00;;;22.30;47.40;;;;;;5012551;28;20225;-48
2023/11/27 00:26:04;;;;;;;0.00;0.00;;;22.40;47.40;;;;;;5012952;28;20199;-47
2023/11/27 00:28:35;;;;;;;0.10;0.10;;;22.40;47.40;;;;;;5012902;28;20197;-48
2023/11/27 00:31:09;;;;;;;0.00;0.00;;;22.40;47.40;;;;;;5012430;28;20228;-46
2023/11/27 00:33:41;;;;;;;0.10;0.10;;;22.50;47.40;;;;;;5012796;28;20205;-47
2023/11/27 00:36:14;;;;;;;0.00;0.00;;;22.50;47.50;;;;;;5013155;28;20208;-47
2023/11/27 00:38:45;;;;;;;0.10;0.10;;;22.50;47.50;;;;;;5015300;28;20188;-47
2023/11/27 00:41:16;;;;;;;0.00;0.00;;;22.50;47.40;;;;;;5019441;28;20235;-46
2023/11/27 00:43:47;;;;;;;0.00;0.00;;;22.60;47.50;;;;;;5033259;28;20263;-49
2023/11/27 00:46:19;;;;;;;0.03;0.03;;;22.60;47.50;;;;;;5032944;28;20219;-49
2023/11/27 00:48:49;;;;;;;0.00;0.00;;;22.60;47.60;;;;;;5030906;28;20219;-51
2023/11/27 00:51:22;;;;;;;0.03;0.03;;;22.60;47.50;;;;;;5031033;28;20220;-42
2023/11/27 00:53:53;;;;;;;0.10;0.10;;;22.60;47.50;;;;;;5031878;28;20199;-47
2023/11/27 00:56:24;;;;;;;0.00;0.00;;;22.60;47.50;;;;;;5032625;28;20202;-45
2023/11/27 00:58:55;;;;;;;0.00;0.00;;;22.60;47.50;;;;;;5032412;28;20202;-50
2023/11/27 01:01:26;;;;;;;0.10;0.10;;;22.70;47.50;;;;;;5032427;28;20227;-46
2023/11/27 01:03:56;;;;;;;0.08;0.08;;;22.70;47.40;;;;;;5032416;28;20224;-49
2023/11/27 01:06:29;;;;;;;0.00;0.00;;;22.70;47.50;;;;;;5032831;28;20211;-44
2023/11/27 01:09:00;;;;;;;0.00;0.00;;;22.70;47.50;;;;;;5032261;28;20196;-49
2023/11/27 01:11:30;;;;;;;0.00;0.00;;;22.70;47.50;;;;;;5032133;28;20228;-50
2023/11/27 01:14:01;;;;;;;0.10;0.10;;;22.70;47.60;;;;;;5032254;28;20196;-47
2023/11/27 01:16:32;;;;;;;0.10;0.10;;;22.80;47.50;;;;;;5032241;28;20196;-49
2023/11/27 01:19:03;;;;;;;0.00;0.00;;;22.80;47.60;;;;;;5032014;28;20656;-53
2023/11/27 01:21:35;;;;;;;0.10;0.10;;;22.80;47.60;;;;;;5031152;28;20227;-51
2023/11/27 01:24:06;;;;;;;0.00;0.00;;;22.80;47.60;;;;;;5030063;28;20215;-50
2023/11/27 01:26:37;;;;;;;0.00;0.00;;;22.90;47.50;;;;;;5031685;28;20266;-49
2023/11/27 01:29:07;;;;;;;0.00;0.00;;;22.90;47.50;;;;;;5031565;28;20656;-47
2023/11/27 01:31:40;;;;;;;0.10;0.10;;;22.90;47.60;;;;;;5031417;28;20223;-51
2023/11/27 01:34:10;;;;;;;0.00;0.00;;;22.90;47.50;;;;;;5030956;28;20204;-49
2023/11/27 01:36:43;;;;;;;0.00;0.00;;;23.00;47.60;;;;;;5031060;28;20767;-47
2023/11/27 01:39:14;;;;;;;0.00;0.00;;;23.00;47.60;;;;;;5031176;28;20203;-48
2023/11/27 01:41:45;;;;;;;0.00;0.00;;;23.00;47.70;;;;;;5029550;28;20200;-51
2023/11/27 01:44:15;;;;;;;0.10;0.10;;;23.00;47.70;;;;;;5031422;28;20223;-49
2023/11/27 01:46:48;;;;;;;0.00;0.00;;;23.00;47.60;;;;;;5031039;28;20192;-47
2023/11/27 01:49:21;;;;;;;0.10;0.10;;;23.00;47.60;;;;;;5029803;28;20189;-49
2023/11/27 01:51:54;;;;;;;0.00;0.00;;;23.00;47.50;;;;;;5031340;28;20223;-49
2023/11/27 01:54:25;;;;;;;0.00;0.00;;;23.10;47.50;;;;;;5031348;28;20196;-47
2023/11/27 01:56:57;;;;;;;0.00;0.00;;;23.00;47.50;;;;;;5030923;28;20196;-47
2023/11/27 01:59:29;;;;;;;0.00;0.00;;;23.10;47.50;;;;;;5030897;28;20299;-50
2023/11/27 02:02:01;;;;;;;0.00;0.00;;;23.10;47.50;;;;;;5031149;28;20204;-49
2023/11/27 02:04:32;;;;;;;0.00;0.00;;;23.10;47.50;;;;;;5030698;28;20549;-47
2023/11/27 02:07:06;;;;;;;0.10;0.10;;;23.20;47.50;;;;;;5030701;28;20275;-52
2023/11/27 02:09:37;;;;;;;0.00;0.00;;;23.10;47.40;;;;;;5031065;28;20227;-51
2023/11/27 02:12:08;;;;;;;0.10;0.10;;;23.20;47.40;;;;;;5031593;28;20350;-50
2023/11/27 02:14:39;;;;;;;0.00;0.00;;;23.20;47.40;;;;;;5031199;28;20200;-49
2023/11/27 02:17:10;;;;;;;0.00;0.00;;;23.20;47.40;;;;;;5031263;28;20648;-50
2023/11/27 02:19:41;;;;;;;0.10;0.10;;;23.20;47.40;;;;;;5031297;28;20692;-49
2023/11/27 02:22:14;;;;;;;0.00;0.00;;;23.30;47.40;;;;;;5031398;28;20196;-49
2023/11/27 02:24:46;;;;;;;0.10;0.10;;;23.30;47.40;;;;;;5030957;28;20226;-49
2023/11/27 02:27:17;;;;;;;0.10;0.10;;;23.30;47.40;;;;;;5030697;28;20218;-50
2023/11/27 02:29:48;;;;;;;0.00;0.00;;;23.30;47.40;;;;;;5030728;28;20215;-49
2023/11/27 02:32:18;;;;;;;0.10;0.10;;;23.30;47.40;;;;;;5031071;28;20569;-46
2023/11/27 02:34:50;;;;;;;0.00;0.00;;;23.30;47.50;;;;;;5030920;28;20196;-50
2023/11/27 02:37:21;;;;;;;0.08;0.08;;;23.30;47.40;;;;;;5030955;28;20196;-50
2023/11/27 02:39:53;;;;;;;0.10;0.10;;;23.30;47.30;;;;;;5027839;28;20757;-48
2023/11/27 02:42:24;;;;;;;0.00;0.00;;;23.40;47.30;;;;;;5031174;28;20668;-48
2023/11/27 02:44:55;;;;;;;0.00;0.00;;;23.40;47.20;;;;;;5031290;28;20228;-46
2023/11/27 02:47:26;;;;;;;0.00;0.00;;;23.40;47.20;;;;;;5028927;28;20203;-49
2023/11/27 02:49:57;;;;;;;0.00;0.00;;;23.50;47.30;;;;;;5014632;28;20220;-49
2023/11/27 02:52:28;;;;;;;0.00;0.00;;;23.50;47.20;;;;;;5014580;28;20247;-45
2023/11/27 02:55:00;;;;;;;0.00;0.00;;;23.50;47.20;;;;;;5014617;28;20661;-50
2023/11/27 02:57:31;;;;;;;0.10;0.10;;;23.50;47.20;;;;;;5014364;28;20621;-48
2023/11/27 03:00:02;;;;;;;0.05;0.05;;;23.60;47.20;;;;;;5014540;28;20223;-49
2023/11/27 03:02:32;;;;;;;0.05;0.05;;;23.60;47.90;;;;;;5014848;28;20228;-49
2023/11/27 03:05:04;;;;;;;0.00;0.00;;;23.60;47.20;;;;;;5014558;28;20228;-50
2023/11/27 03:07:35;;;;;;;0.00;0.00;;;23.60;47.20;;;;;;5014361;28;20644;-49
2023/11/27 03:10:09;;;;;;;0.00;0.00;;;23.70;47.30;;;;;;5013927;28;20217;-49
2023/11/27 03:12:40;;;;;;;0.00;0.00;;;23.70;47.20;;;;;;5031430;28;20200;-48
2023/11/27 03:15:10;;;;;;;0.00;0.00;;;23.70;47.20;;;;;;5034122;28;20207;-47
2023/11/27 03:17:41;;;;;;;0.10;0.10;;;23.70;47.20;;;;;;5033943;28;20189;-51
2023/11/27 03:20:14;;;;;;;0.00;0.00;;;23.70;47.20;;;;;;5034208;28;20220;-51
2023/11/27 03:22:44;;;;;;;0.08;0.08;;;23.70;47.10;;;;;;5032440;28;20198;-50
2023/11/27 03:25:17;;;;;;;0.00;0.00;;;23.70;47.10;;;;;;5034040;28;20247;-51
2023/11/27 03:27:48;;;;;;;0.00;0.00;;;23.70;47.10;;;;;;5034031;28;20206;-49
2023/11/27 03:30:19;;;;;;;0.10;0.10;;;23.80;47.10;;;;;;5033712;28;20220;-48
2023/11/27 03:32:50;;;;;;;0.00;0.00;;;23.80;47.10;;;;;;5033788;28;20203;-47
2023/11/27 03:35:21;;;;;;;0.10;0.10;;;23.80;47.10;;;;;;5033976;28;20277;-50
2023/11/27 03:37:51;;;;;;;0.00;0.00;;;23.80;47.10;;;;;;5033668;28;20659;-48
2023/11/27 03:40:24;;;;;;;0.00;0.00;;;23.80;47.10;;;;;;5033160;28;20212;-51
2023/11/27 03:42:54;;;;;;;0.00;0.00;;;23.80;47.00;;;;;;5014045;28;20280;-47
2023/11/27 03:45:25;;;;;;;0.00;0.00;;;23.80;47.10;;;;;;5014214;28;20651;-50
2023/11/27 03:47:57;;;;;;;0.00;0.00;;;23.80;47.10;;;;;;5014019;28;20204;-50
2023/11/27 03:50:28;;;;;;;0.00;0.00;;;23.80;47.00;;;;;;5013957;28;20219;-49
2023/11/27 03:52:58;;;;;;;0.00;0.00;;;23.90;47.10;;;;;;5013544;28;20224;-49
2023/11/27 03:55:31;;;;;;;0.00;0.00;;;23.90;47.00;;;;;;5014648;28;20192;-49
2023/11/27 03:58:02;;;;;;;0.00;0.00;;;23.90;47.00;;;;;;5013747;28;20201;-48
2023/11/27 04:00:33;;;;;;;0.00;0.00;;;23.90;47.00;;;;;;5013350;28;20220;-48
2023/11/27 04:03:03;;;;;;;0.10;0.10;;;23.90;47.00;;;;;;5013247;28;20197;-47
2023/11/27 04:05:34;;;;;;;0.00;0.00;;;24.00;47.00;;;;;;5013308;28;20228;-47
2023/11/27 04:08:05;;;;;;;0.10;0.10;;;24.00;47.00;;;;;;5013319;28;20235;-48
2023/11/27 04:10:38;;;;;;;0.00;0.00;;;24.00;47.00;;;;;;5014336;28;20220;-47
2023/11/27 04:13:08;;;;;;;0.00;0.00;;;24.00;47.00;;;;;;5033144;28;20258;-48
2023/11/27 04:15:39;;;;;;;0.00;0.00;;;24.00;47.00;;;;;;5032931;28;20208;-46
2023/11/27 04:18:10;;;;;;;0.00;0.00;;;24.00;47.00;;;;;;5032466;28;20567;-47
2023/11/27 04:20:41;;;;;;;0.00;0.00;;;24.00;46.90;;;;;;5032904;28;20216;-49
2023/11/27 04:23:12;;;;;;;0.00;0.00;;;24.00;46.90;;;;;;5032989;28;20196;-50
2023/11/27 04:25:44;;;;;;;0.00;0.00;;;24.00;47.00;;;;;;5032410;28;20232;-48
2023/11/27 04:28:15;;;;;;;0.03;0.03;;;24.00;46.90;;;;;;5032413;28;20203;-45
2023/11/27 04:30:46;;;;;;;0.00;0.00;;;24.10;47.60;;;;;;5032545;28;20677;-50
2023/11/27 04:33:17;;;;;;;0.00;0.00;;;24.10;46.90;;;;;;5029521;28;20196;-45
2023/11/27 04:35:47;;;;;;;0.10;0.10;;;24.10;46.90;;;;;;5033011;28;20255;-46
2023/11/27 04:38:18;;;;;;;0.00;0.00;;;24.10;46.90;;;;;;5032566;28;20196;-47
2023/11/27 04:40:50;;;;;;;0.00;0.00;;;24.20;47.00;;;;;;5032285;28;20564;-49
2023/11/27 04:43:27;;;;;;;0.00;0.00;;;24.20;46.90;;;;;;5032739;28;20241;-46
2023/11/27 04:45:58;;;;;;;0.00;0.00;;;24.20;46.90;;;;;;5032512;28;20227;-48
2023/11/27 04:48:30;;;;;;;0.08;0.08;;;24.20;47.50;;;;;;5032938;28;20200;-50
2023/11/27 04:51:00;;;;;;;0.00;0.00;;;24.20;46.80;;;;;;5028838;28;20262;-44
2023/11/27 04:53:31;;;;;;;0.00;0.00;;;24.20;46.80;;;;;;5031642;28;20200;-46
2023/11/27 04:56:04;;;;;;;0.00;0.00;;;24.20;46.80;;;;;;5032698;28;20200;-47
2023/11/27 04:58:35;;;;;;;0.00;0.00;;;24.20;46.80;;;;;;5032601;28;20204;-47
2023/11/27 05:01:06;;;;;;;0.00;0.00;;;24.20;46.80;;;;;;5032280;28;20212;-47
2023/11/27 05:03:36;;;;;;;0.00;0.00;;;24.20;46.80;;;;;;5031874;28;20226;-48
2023/11/27 05:06:08;;;;;;;0.00;0.00;;;24.20;46.80;;;;;;5031837;28;20307;-47
2023/11/27 05:08:39;;;;;;;0.10;0.10;;;24.30;46.80;;;;;;5031534;28;20188;-51
2023/11/27 05:11:18;;;;;;;0.00;0.00;;;24.30;46.80;;;;;;5031014;28;20219;-49
2023/11/27 05:13:49;;;;;;;0.03;0.03;;;24.30;46.80;;;;;;5031564;28;20198;-48
2023/11/27 05:16:21;;;;;;;0.00;0.00;;;24.30;46.80;;;;;;5031616;28;20199;-48
2023/11/27 05:18:53;;;;;;;0.00;0.00;;;24.30;46.80;;;;;;5014534;28;20189;-50
2023/11/27 05:21:23;;;;;;;0.10;0.10;;;24.30;46.80;;;;;;5011899;28;20233;-49
2023/11/27 05:23:54;;;;;;;0.00;0.00;;;24.30;46.80;;;;;;5011660;28;20279;-49
2023/11/27 05:26:27;;;;;;;0.00;0.00;;;24.30;46.80;;;;;;5012246;28;20228;-49
2023/11/27 05:28:58;;;;;;;0.10;0.10;;;24.40;46.80;;;;;;5012035;28;20200;-47
2023/11/27 05:31:28;;;;;;;0.00;0.00;;;24.40;46.80;;;;;;5012117;28;20547;-46
2023/11/27 05:33:59;;;;;;;0.00;0.00;;;24.40;46.80;;;;;;5012316;28;20207;-46
2023/11/27 05:36:30;;;;;;;0.00;0.00;;;24.40;46.80;;;;;;5011894;28;20193;-50
2023/11/27 05:39:00;;;;;;;0.00;0.00;;;24.40;46.70;;;;;;5012060;28;20207;-49
2023/11/27 05:41:33;;;;;;;0.00;0.00;;;24.40;46.70;;;;;;5022516;28;20232;-48
2023/11/27 05:44:04;;;;;;;0.00;0.00;;;24.40;46.70;;;;;;5031659;28;20291;-46
2023/11/27 05:46:34;;;;;;;0.00;0.00;;;24.40;46.70;;;;;;5031993;28;20247;-51
2023/11/27 05:49:05;;;;;;;0.10;0.10;;;24.40;46.70;;;;;;5031510;28;20301;-51
2023/11/27 05:51:39;;;;;;;0.00;0.00;;;24.40;46.70;;;;;;5029445;28;20226;-51
2023/11/27 05:54:11;;;;;;;0.00;0.00;;;24.40;46.70;;;;;;5031519;28;20200;-50
2023/11/27 05:56:44;;;;;;;0.00;0.00;;;24.40;46.70;;;;;;5031563;28;20200;-53
2023/11/27 05:59:16;;;;;;;0.00;0.00;;;24.40;46.70;;;;;;5031334;28;20202;-43
2023/11/27 06:01:47;;;;;;;0.00;0.00;;;24.40;46.70;;;;;;5031263;28;20253;-49
2023/11/27 06:04:18;;;;;;;0.03;0.03;;;24.40;46.60;;;;;;5031197;28;20283;-46
2023/11/27 06:06:48;;;;;;;0.00;0.00;;;24.40;46.70;;;;;;5030895;28;20196;-50
2023/11/27 06:09:20;;;;;;;0.00;0.00;;;24.40;46.70;;;;;;5030947;28;20203;-50
2023/11/27 06:11:53;;;;;;;0.00;0.00;;;24.40;47.30;;;;;;5031154;28;20200;-46
2023/11/27 06:14:23;;;;;;;0.00;0.00;;;24.40;46.60;;;;;;5031361;28;20622;-47
2023/11/27 06:16:56;;;;;;;0.00;0.00;;;24.40;46.50;;;;;;5031127;28;20200;-49
2023/11/27 06:19:29;;;;;;;0.00;0.00;;;24.40;46.50;;;;;;5031011;28;20231;-50
2023/11/27 06:22:00;;;;;;;0.00;0.00;;;24.40;46.60;;;;;;5014277;28;20192;-52
2023/11/27 06:24:31;;;;;;;0.00;0.00;;;24.40;46.70;;;;;;5015462;28;20705;-48
2023/11/27 06:27:04;;;;;;;0.00;0.00;;;24.40;46.70;;;;;;5015404;28;20212;-45
2023/11/27 06:29:35;;;;;;;0.00;0.00;;;24.40;46.70;;;;;;5015403;28;20255;-46
2023/11/27 06:32:05;;;;;;;0.00;0.00;;;24.40;46.70;;;;;;5015657;28;20657;-46
2023/11/27 06:34:36;;;;;;;0.00;0.00;;;24.40;46.70;;;;;;5017877;28;20204;-45
2023/11/27 06:37:07;;;;;;;0.10;0.10;;;24.40;46.70;;;;;;5014126;28;20204;-48
2023/11/27 06:39:38;;;;;;;0.03;0.03;;;24.40;46.70;;;;;;5014669;28;20275;-46
2023/11/27 06:42:12;;;;;;;0.00;0.00;;;24.40;46.70;;;;;;5025507;28;20189;-46
2023/11/27 06:44:43;;;;;;;0.00;0.00;;;24.30;46.70;;;;;;5034952;28;20219;-47
2023/11/27 06:47:14;;;;;;;0.00;0.00;;;24.30;46.70;;;;;;5034784;28;20640;-49
2023/11/27 06:49:45;;;;;;;0.00;0.00;;;24.30;46.60;;;;;;5034433;28;20231;-49
2023/11/27 06:52:17;;;;;;;0.10;0.10;;;24.30;46.60;;;;;;5033851;28;20200;-45
2023/11/27 06:54:47;;;;;;;0.00;0.00;;;24.30;46.60;;;;;;5034500;28;20223;-48
2023/11/27 06:57:20;;;;;;;0.10;0.10;;;24.30;46.60;;;;;;5034578;28;20196;-49
2023/11/27 06:59:51;;;;;;;0.00;0.00;;;24.30;46.60;;;;;;5034438;28;20216;-46
2023/11/27 07:02:21;;;;;;;0.00;0.00;;;24.30;46.60;;;;;;5034026;28;20715;-48
2023/11/27 07:04:52;;;;;;;0.00;0.00;;;24.30;46.60;;;;;;5033869;28;20688;-47
2023/11/27 07:07:26;;;;;;;0.00;0.00;;;24.30;46.60;;;;;;5033665;28;20206;-48
2023/11/27 07:09:56;;;;;;;0.00;0.00;;;24.30;46.60;;;;;;5034522;28;20298;-49
2023/11/27 07:12:29;;;;;;;0.00;0.00;;;24.30;46.60;;;;;;5034278;28;20196;-45
2023/11/27 07:15:00;;;;;;;0.00;0.00;;;24.30;46.60;;;;;;5034272;28;20200;-48
2023/11/27 07:17:30;;;;;;;0.00;0.00;;;24.30;46.60;;;;;;5030312;28;20649;-48
2023/11/27 07:20:01;;;;;;;0.00;0.00;;;24.20;46.50;;;;;;5033680;28;20224;-48
2023/11/27 07:22:32;;;;;;;0.00;0.00;;;24.20;46.60;;;;;;5034067;28;20200;-45
2023/11/27 07:25:03;;;;;;;0.00;0.00;;;24.20;46.50;;;;;;5033955;28;20224;-49
2023/11/27 07:27:35;;;;;;;0.00;0.00;;;24.20;46.60;;;;;;5033727;28;20196;-49
2023/11/27 07:30:07;;;;;;;0.00;0.00;;;24.20;46.60;;;;;;5033492;28;20217;-48
2023/11/27 07:32:38;;;;;;;0.00;0.00;;;24.20;46.60;;;;;;5033480;28;20227;-47
2023/11/27 07:35:09;;;;;;;0.00;0.00;;;24.20;46.60;;;;;;5033055;28;20608;-47
2023/11/27 07:37:41;;;;;;;0.00;0.00;;;24.10;46.50;;;;;;5033529;28;20196;-49
2023/11/27 07:40:14;;;;;;;0.00;0.00;;;24.10;46.50;;;;;;5032976;28;20695;-46
2023/11/27 07:42:50;;;;;;;0.00;0.00;;;24.10;46.60;;;;;;5033354;28;20576;-48
2023/11/27 07:45:20;;;;;;;0.00;0.00;;;24.10;46.50;;;;;;5020921;28;20712;-47
2023/11/27 07:47:51;;;;;;;0.05;0.05;;;24.10;46.50;;;;;;5013746;28;20279;-50
2023/11/27 07:50:22;;;;;;;0.00;0.00;;;24.10;46.50;;;;;;5013145;28;20225;-46
2023/11/27 07:52:53;;;;;;;0.00;0.00;;;24.10;46.60;;;;;;5013723;28;20283;-48
2023/11/27 07:55:24;;;;;;;0.00;0.00;;;24.00;46.50;;;;;;5013909;28;20555;-49
2023/11/27 07:57:57;;;;;;;0.00;0.00;;;24.00;46.50;;;;;;5013787;28;20192;-48
2023/11/27 08:00:31;;;;;;;0.00;0.00;;;24.00;46.50;;;;;;5013653;28;20696;-46
2023/11/27 08:03:02;;;;;;;0.00;0.00;;;24.00;46.50;;;;;;5013574;28;20628;-50
2023/11/27 08:05:32;;;;;;;0.00;0.00;;;24.00;46.50;;;;;;5013070;28;20255;-49
2023/11/27 08:08:04;;;;;;;0.00;0.00;;;24.00;46.50;;;;;;5013563;28;20568;-49
2023/11/27 08:10:36;;;;;;;0.00;0.00;;;24.00;46.50;;;;;;5014178;28;20753;-46
2023/11/27 08:13:09;;;;;;;0.00;0.00;;;23.90;46.50;;;;;;5032833;28;20202;-48
2023/11/27 08:15:40;;;;;;;0.00;0.00;;;23.90;46.40;;;;;;5032913;28;20572;-48
2023/11/27 08:18:11;;;;;;;0.10;0.10;;;23.90;46.50;;;;;;5033099;28;20196;-50
2023/11/27 08:20:42;;;;;;;0.00;0.00;;;23.90;46.50;;;;;;5032612;28;20216;-48
2023/11/27 08:23:13;;;;;;;0.00;0.00;;;23.80;46.50;;;;;;5033063;28;20208;-48
2023/11/27 08:25:44;;;;;;;0.00;0.00;;;23.80;46.50;;;;;;5032590;28;20311;-47
2023/11/27 08:28:17;;;;;;;0.10;0.10;;;23.80;46.50;;;;;;5029457;28;20192;-48
2023/11/27 08:30:47;;;;;;;0.00;0.00;;;23.80;46.50;;;;;;5032455;28;20298;-46
2023/11/27 08:33:18;;;;;;;0.00;0.00;;;23.80;46.50;;;;;;5032625;28;20223;-48
2023/11/27 08:35:49;;;;;;;0.00;0.00;;;23.80;46.50;;;;;;5031501;28;20200;-49
2023/11/27 08:38:19;;;;;;;0.00;0.00;;;23.70;46.50;;;;;;5032389;28;20199;-48
2023/11/27 08:40:50;;;;;;;0.00;0.00;;;23.70;46.50;;;;;;5032323;28;20216;-46
2023/11/27 08:43:23;;;;;;;0.00;0.00;;;23.70;46.50;;;;;;5031169;28;20215;-46
2023/11/27 08:45:54;;;;;;;0.00;0.00;;;23.70;46.50;;;;;;5031336;28;20228;-47
2023/11/27 08:48:25;;;;;;;0.00;0.00;;;23.70;46.50;;;;;;5032819;28;20636;-46
2023/11/27 08:50:55;;;;;;;0.10;0.10;;;23.70;46.50;;;;;;5031896;28;20252;-45
2023/11/27 08:53:27;;;;;;;0.00;0.00;;;23.70;46.50;;;;;;5029458;28;20200;-48
2023/11/27 08:55:59;;;;;;;0.03;0.03;;;23.60;46.40;;;;;;5031734;28;20203;-45
2023/11/27 08:58:34;;;;;;;0.00;0.00;;;23.60;46.50;;;;;;5032439;28;20200;-47
2023/11/27 09:01:05;;;;;;;0.00;0.00;;;23.60;46.50;;;;;;5032151;28;20577;-47
2023/11/27 09:03:36;;;;;;;0.00;0.00;;;23.60;46.50;;;;;;5031779;28;20196;-48
2023/11/27 09:06:09;;;;;;;0.00;0.00;;;23.50;46.40;;;;;;5032015;28;20228;-48
2023/11/27 09:08:40;;;;;;;0.00;0.00;;;23.50;46.40;;;;;;5031713;28;20200;-46
2023/11/27 09:11:11;;;;;;;0.00;0.00;;;23.50;46.50;;;;;;5031571;28;20223;-45
2023/11/27 09:13:44;;;;;;;0.10;0.10;;;23.50;46.50;;;;;;5026537;28;20691;-47
2023/11/27 09:16:16;;;;;;;0.00;0.00;;;23.50;46.60;;;;;;5029530;28;20207;-47
2023/11/27 09:18:46;;;;;;;0.00;0.00;;;23.40;46.50;;;;;;5030258;28;20187;-45
2023/11/27 09:21:18;;;;;;;0.10;0.10;;;23.40;46.60;;;;;;5011070;28;20217;-50
2023/11/27 09:23:49;;;;;;;0.00;0.00;;;23.40;46.60;;;;;;5011111;28;20691;-48
2023/11/27 09:26:19;;;;;;;0.10;0.10;;;23.40;46.60;;;;;;5011756;28;20228;-47
2023/11/27 09:28:53;;;;;;;0.10;0.10;;;23.40;46.60;;;;;;5023982;28;20289;-48
2023/11/27 09:31:26;;;;;;;0.00;0.00;;;23.30;46.60;;;;;;5031639;28;20755;-48
2023/11/27 09:33:57;;;;;;;0.00;0.00;;;23.30;46.60;;;;;;5031106;28;20196;-48
2023/11/27 09:36:28;;;;;;;0.00;0.00;;;23.30;46.60;;;;;;5030424;28;20200;-45
2023/11/27 09:38:58;;;;;;;0.10;0.10;;;23.30;46.60;;;;;;5030627;28;20882;-46
2023/11/27 09:41:30;;;;;;;0.10;0.10;;;23.30;46.50;;;;;;5030376;28;20231;-47
2023/11/27 09:44:03;;;;;;;0.00;0.00;;;23.30;46.50;;;;;;5030144;28;20283;-47
2023/11/27 09:46:42;;;;;;;0.00;0.00;;;23.30;46.50;;;;;;5030389;28;20323;-47
2023/11/27 09:49:16;;;;;;;0.00;0.00;;;23.20;46.40;;;;;;5031205;28;20293;-47
2023/11/27 09:51:52;;;;;;;0.00;0.00;;;23.20;46.50;;;;;;5022954;28;20653;-47
2023/11/27 09:54:27;;;;;;;0.00;0.00;;;23.10;46.40;;;;;;5010781;28;20243;-46
2023/11/27 09:56:59;;;;;;;0.00;0.00;;;23.10;46.40;;;;;;5019541;28;20188;-47
2023/11/27 09:59:38;;;;;;;0.00;0.00;;;23.10;46.40;;;;;;5030680;28;20218;-48
2023/11/27 10:02:11;;;;;;;0.00;0.00;;;23.10;46.40;;;;;;5031566;28;20648;-45
2023/11/27 10:04:42;;;;;;;0.00;0.00;;;23.10;46.40;;;;;;5030069;28;20683;-45
2023/11/27 10:07:13;;;;;;;0.00;0.00;;;23.00;46.40;;;;;;5031294;28;20700;-44
2023/11/27 10:09:45;;;;;;;0.10;0.10;;;23.00;46.40;;;;;;5030264;28;20782;-47
2023/11/27 10:12:24;;;;;;;0.00;0.00;;;23.00;46.40;;;;;;5031652;28;20205;-47
2023/11/27 10:15:02;;;;;;;0.00;0.00;;;23.00;46.50;;;;;;5030568;28;20200;-46
2023/11/27 10:17:33;;;;;;;0.00;0.00;;;22.90;46.40;;;;;;5031567;28;20202;-49
2023/11/27 10:20:04;;;;;;;0.10;0.10;;;22.90;46.50;;;;;;5030857;28;20227;-48
2023/11/27 10:22:35;;;;;;;0.00;0.00;;;22.90;46.40;;;;;;5030027;28;20192;-46
2023/11/27 10:25:07;;;;;;;0.00;0.00;;;22.90;46.40;;;;;;5021931;28;20219;-48
2023/11/27 10:27:38;;;;;;;0.00;0.00;;;22.90;46.40;;;;;;5010617;28;20590;-44
2023/11/27 10:30:21;;;;;;;0.00;0.00;;;22.90;46.40;;;;;;5011430;28;20243;-47
2023/11/27 10:32:51;;;;;;;0.00;0.00;;;22.80;46.30;;;;;;5012941;28;20189;-47
2023/11/27 10:35:25;;;;;;;0.00;0.00;;;22.90;46.40;;;;;;5028836;28;20197;-50
2023/11/27 10:37:56;;;;;;;0.10;0.10;;;22.80;46.40;;;;;;5029372;28;20605;-46
2023/11/27 10:40:28;;;;;;;0.00;0.00;;;22.80;46.40;;;;;;5022902;28;20227;-47
2023/11/27 10:43:01;;;;;;;0.00;0.00;;;22.70;46.30;;;;;;5028866;28;20193;-47
2023/11/27 10:45:36;;;;;;;0.00;0.00;;;22.70;46.30;;;;;;5029587;28;20254;-47
2023/11/27 10:48:08;;;;;;;0.10;0.10;;;22.70;46.30;;;;;;5028872;28;20199;-48
2023/11/27 10:50:41;;;;;;;0.00;0.00;;;22.70;46.30;;;;;;5029090;28;20204;-48
2023/11/27 10:53:13;;;;;;;0.00;0.00;;;22.60;46.30;;;;;;5030972;28;20194;-48
2023/11/27 10:55:48;;;;;;;0.00;0.00;;;22.60;46.30;;;;;;5028467;28;20193;-47
2023/11/27 10:58:20;;;;;;;0.00;0.00;;;22.60;46.40;;;;;;5030625;28;20206;-47
2023/11/27 11:00:56;;;;;;;0.00;0.00;;;22.60;46.40;;;;;;5029398;28;20205;-44
2023/11/27 11:03:32;;;;;;;0.10;0.10;;;22.60;46.40;;;;;;5028462;28;20644;-47
2023/11/27 11:06:06;;;;;;;0.00;0.00;;;22.50;46.40;;;;;;5027850;28;20458;-47
2023/11/27 11:08:38;;;;;;;0.03;0.03;;;22.50;46.40;;;;;;5031845;28;20192;-45
2023/11/27 11:11:09;;;;;;;0.00;0.00;;;22.50;46.40;;;;;;5031871;28;20684;-48
2023/11/27 11:13:42;;;;;;;0.00;0.00;;;22.50;46.40;;;;;;5033676;28;20188;-49
2023/11/27 11:16:23;;;;;;;0.00;0.00;;;22.50;46.40;;;;;;5033382;28;20207;-48
2023/11/27 11:18:58;;;;;;;0.00;0.00;;;22.50;46.40;;;;;;5032245;28;20192;-47
2023/11/27 11:21:47;;;;;;;0.10;0.10;;;22.40;46.40;;;;;;5032161;28;20211;-47
2023/11/27 11:24:26;;;;;;;0.00;0.00;;;22.40;46.40;;;;;;5033118;28;20242;-45
2023/11/27 11:27:17;;;;;;;0.00;0.00;;;22.40;46.40;;;;;;5032650;28;20215;-47
2023/11/27 11:29:49;;;;;;;0.10;0.10;;;22.30;46.30;;;;;;5031062;28;20247;-46
2023/11/27 11:32:28;;;;;;;0.05;0.05;;;22.40;46.40;;;;;;5033908;28;20196;-47
2023/11/27 11:35:02;;;;;;;0.10;0.10;;;22.30;46.40;;;;;;5033795;28;20190;-45
2023/11/27 11:37:34;;;;;;;0.00;0.00;;;22.30;46.40;;;;;;5034122;28;20184;-47
2023/11/27 11:40:05;;;;;;;0.00;0.00;;;22.30;46.40;;;;;;5018909;28;20220;-47
2023/11/27 11:42:36;;;;;;;0.00;0.00;;;22.30;46.40;;;;;;5033823;28;20207;-45
2023/11/27 11:45:16;;;;;;;0.00;0.00;;;22.20;46.40;;;;;;5033799;28;20204;-50
2023/11/27 11:47:53;;;;;;;0.00;0.00;;;22.20;46.40;;;;;;5034296;28;20545;-47
2023/11/27 11:50:34;;;;;;;0.00;0.00;;;22.20;46.40;;;;;;5033845;28;20220;-47
2023/11/27 11:53:29;;;;;;;0.00;0.00;;;22.20;46.50;;;;;;5033228;28;20557;-46
2023/11/27 11:56:03;;;;;;;0.10;0.10;;;22.20;46.50;;;;;;5032935;28;20192;-44
2023/11/27 11:58:37;;;;;;;0.00;0.00;;;22.10;46.50;;;;;;5031744;28;20649;-45
2023/11/27 12:01:08;;;;;;;0.00;0.00;;;22.10;46.50;;;;;;5033457;28;20567;-46
2023/11/27 12:03:45;;;;;;;0.00;0.00;;;22.10;46.50;;;;;;5033950;28;20200;-47
2023/11/27 12:06:16;;;;;;;0.00;0.00;;;22.10;47.10;;;;;;5033360;28;20210;-45
2023/11/27 12:08:47;;;;;;;0.00;0.00;;;22.10;46.50;;;;;;5033409;28;20196;-48
2023/11/27 12:11:17;;;;;;;0.08;0.08;;;22.10;46.50;;;;;;5033132;28;20273;-51
2023/11/27 12:13:46;;;;;;;0.10;0.10;;;22.00;46.50;;;;;;5033128;28;20207;-48
2023/11/27 12:16:21;;;;;;;0.00;0.00;;;22.00;46.40;;;;;;5033020;28;20826;-48
2023/11/27 12:18:54;;;;;;;0.10;0.10;;;22.00;46.50;;;;;;5032912;28;20196;-45
2023/11/27 12:21:26;;;;;;;0.00;0.00;;;22.00;46.40;;;;;;5032845;28;20303;-47
2023/11/27 12:23:57;;;;;;;0.05;0.05;;;22.00;46.50;;;;;;5032960;28;20192;-48
2023/11/27 12:26:28;;;;;;;0.10;0.10;;;22.00;46.50;;;;;;5032668;28;20608;-45
2023/11/27 12:28:59;;;;;;;0.00;0.00;;;22.00;46.50;;;;;;5032829;28;20196;-47
2023/11/27 12:31:30;;;;;;;0.03;0.03;;;21.90;46.50;;;;;;5032595;28;20223;-48
2023/11/27 12:34:03;;;;;;;0.10;0.10;;;21.90;46.50;;;;;;5032616;28;20200;-45
2023/11/27 12:36:34;;;;;;;0.00;0.00;;;21.90;46.60;;;;;;5032889;28;20632;-48
2023/11/27 12:39:10;;;;;;;0.10;0.10;;;21.90;46.60;;;;;;5032974;28;20559;-45
2023/11/27 12:41:43;;;;;;;0.00;0.00;;;21.90;46.60;;;;;;5032717;28;20577;-49
2023/11/27 12:44:16;;;;;;;0.10;0.10;;;21.90;46.60;;;;;;5033182;28;20660;-45
2023/11/27 12:46:52;;;;;;;0.00;0.00;;;21.90;46.60;;;;;;5025169;28;20224;-46
2023/11/27 12:49:29;;;;;;;0.00;0.00;;;21.90;46.60;;;;;;5026018;28;20556;-47
2023/11/27 12:52:10;;;;;;;0.00;0.00;;;21.90;46.60;;;;;;5032956;28;20632;-47
2023/11/27 12:54:40;;;;;;;0.00;0.00;;;21.90;46.60;;;;;;5031007;28;20197;-48
2023/11/27 12:57:11;;;;;;;0.00;0.00;;;21.90;46.60;;;;;;5032599;28;20211;-47
2023/11/27 12:59:46;;;;;;;0.00;0.00;;;21.80;46.50;;;;;;5031940;28;20221;-46
2023/11/27 13:02:21;;;;;;;0.00;0.00;;;21.80;46.50;;;;;;5032057;28;20672;-47
2023/11/27 13:04:54;;;;;;;0.00;0.00;;;21.80;46.50;;;;;;5028922;28;20195;-45
2023/11/27 13:07:25;;;;;;;0.00;0.00;;;21.80;46.50;;;;;;5031917;28;20224;-49
2023/11/27 13:09:59;;;;;;;0.00;0.00;;;21.80;46.50;;;;;;5031581;28;20246;-47
2023/11/27 13:12:30;;;;;;;0.00;0.00;;;21.80;46.50;;;;;;5031320;28;20224;-46